Time;durP1;ratioP1;P1;durP2;ratioP2;P2;SDS_P1;SDS_P2;PMS_P1;PMS_P2;Temp;Humidity;BMP_temperature;BMP_pressure;BME280_temperature;BME280_humidity;BME280_pressure;Samples;Min_cycle;Max_cycle;Signal;HPM_P1;HPM_P2
2022/06/17 00:01:01;;;;;;;1.50;1.40;;;13.60;99.90;;;;;;5014152;28;20457;-81
2022/06/17 00:03:28;;;;;;;4.05;1.70;;;13.50;99.90;;;;;;5032111;28;20374;-82
2022/06/17 00:05:56;;;;;;;2.83;1.70;;;13.50;99.90;;;;;;5031759;28;20464;-82
2022/06/17 00:08:33;;;;;;;2.45;1.45;;;13.50;99.90;;;;;;5014194;28;20389;-82
2022/06/17 00:10:59;;;;;;;2.88;1.65;;;13.50;99.90;;;;;;5031783;28;20467;-82
2022/06/17 00:13:24;;;;;;;1.90;1.40;;;13.50;99.90;;;;;;5013885;28;20373;-82
2022/06/17 00:15:51;;;;;;;3.30;1.42;;;13.60;99.90;;;;;;5031310;28;20393;-82
2022/06/17 00:18:18;;;;;;;3.10;1.90;;;13.60;99.90;;;;;;5013496;28;20405;-81
2022/06/17 00:20:46;;;;;;;2.47;1.50;;;13.60;99.90;;;;;;5013481;28;20378;-82
2022/06/17 00:23:15;;;;;;;3.00;1.52;;;13.60;99.90;;;;;;5031862;28;20452;-82
2022/06/17 00:25:45;;;;;;;3.30;2.00;;;13.60;99.90;;;;;;5014220;28;20413;-82
2022/06/17 00:28:29;;;;;;;2.10;1.63;;;13.60;99.90;;;;;;5013536;28;20390;-82
2022/06/17 00:30:54;;;;;;;3.17;1.88;;;13.50;99.90;;;;;;5005794;28;20407;-82
2022/06/17 00:33:20;;;;;;;2.80;1.60;;;13.50;99.90;;;;;;5004979;28;20378;-82
2022/06/17 00:35:52;;;;;;;2.93;1.90;;;13.50;99.90;;;;;;5031589;28;20381;-82
2022/06/17 00:38:22;;;;;;;3.37;1.77;;;13.40;99.90;;;;;;5013350;28;20402;-82
2022/06/17 00:40:49;;;;;;;2.53;1.80;;;13.40;99.90;;;;;;5031153;28;20810;-82
2022/06/17 00:43:31;;;;;;;2.58;1.70;;;13.30;99.90;;;;;;5013319;28;20465;-82
2022/06/17 00:46:18;;;;;;;3.97;1.75;;;13.20;99.90;;;;;;5013683;28;20381;-82
2022/06/17 00:49:19;;;;;;;3.00;1.50;;;13.10;99.90;;;;;;5030755;28;20374;-82
2022/06/17 00:52:03;;;;;;;2.17;1.75;;;13.10;99.90;;;;;;4996600;28;20385;-82
2022/06/17 00:54:43;;;;;;;3.58;1.80;;;13.10;99.90;;;;;;5015292;28;20386;-82
2022/06/17 00:57:20;;;;;;;1.92;1.55;;;13.00;99.90;;;;;;5030748;28;20412;-82
2022/06/17 01:00:10;;;;;;;3.25;1.80;;;13.00;99.90;;;;;;5012747;28;20378;-82
2022/06/17 01:02:40;;;;;;;3.10;1.65;;;13.00;99.90;;;;;;5012869;28;20784;-82
2022/06/17 01:05:07;;;;;;;2.83;1.63;;;12.90;99.90;;;;;;5003692;28;20379;-82
2022/06/17 01:07:42;;;;;;;3.60;2.05;;;12.90;99.90;;;;;;5026335;28;20380;-83
2022/06/17 01:10:12;;;;;;;2.20;1.70;;;12.80;99.90;;;;;;5026538;28;20382;-82
2022/06/17 01:13:06;;;;;;;2.97;1.65;;;12.70;99.90;;;;;;5011282;28;20462;-82
2022/06/17 01:15:33;;;;;;;2.22;1.80;;;12.70;99.90;;;;;;5028465;28;20394;-82
2022/06/17 01:18:00;;;;;;;2.42;1.73;;;12.60;99.90;;;;;;5012302;28;20411;-83
2022/06/17 01:20:28;;;;;;;2.30;1.73;;;12.60;99.90;;;;;;5012912;28;20457;-82
2022/06/17 01:22:56;;;;;;;4.10;1.90;;;12.60;99.90;;;;;;5030478;28;20373;-82
2022/06/17 01:25:30;;;;;;;2.45;1.70;;;12.50;99.90;;;;;;5030414;28;20370;-82
2022/06/17 01:27:59;;;;;;;2.08;1.70;;;12.50;99.90;;;;;;5030046;28;20388;-82
2022/06/17 01:30:31;;;;;;;3.13;1.75;;;12.40;99.90;;;;;;5009888;28;20557;-82
2022/06/17 01:33:01;;;;;;;2.65;1.70;;;12.40;99.90;;;;;;5012074;28;20418;-82
2022/06/17 01:35:31;;;;;;;1.98;1.77;;;12.30;99.90;;;;;;5011921;28;20495;-82
2022/06/17 01:37:57;;;;;;;2.60;1.90;;;12.20;99.90;;;;;;5012488;28;20401;-82
2022/06/17 01:40:28;;;;;;;3.63;1.95;;;12.20;99.90;;;;;;5011950;28;20432;-81
2022/06/17 01:42:57;;;;;;;2.10;1.70;;;12.10;99.90;;;;;;5030129;28;20399;-81
2022/06/17 01:45:23;;;;;;;3.50;2.00;;;12.10;99.90;;;;;;5011806;28;20381;-82
2022/06/17 01:47:49;;;;;;;2.05;1.80;;;12.00;99.90;;;;;;5030042;28;20810;-83
2022/06/17 01:50:21;;;;;;;3.38;1.88;;;12.00;99.90;;;;;;5028032;28;20994;-82
2022/06/17 01:52:57;;;;;;;2.47;1.90;;;11.90;99.90;;;;;;5011995;28;20442;-82
2022/06/17 01:55:29;;;;;;;2.00;1.77;;;11.90;99.90;;;;;;5011954;28;20386;-82
2022/06/17 01:58:08;;;;;;;3.38;1.90;;;11.80;99.90;;;;;;5011589;28;20433;-82
2022/06/17 02:00:35;;;;;;;2.95;1.98;;;11.70;99.90;;;;;;5011248;28;20382;-82
2022/06/17 02:03:10;;;;;;;3.05;2.00;;;11.70;99.90;;;;;;5029614;28;20885;-81
2022/06/17 02:05:38;;;;;;;2.05;1.75;;;11.60;99.90;;;;;;5011594;28;20786;-82
2022/06/17 02:08:04;;;;;;;3.10;1.90;;;11.60;99.90;;;;;;5011104;28;20377;-82
2022/06/17 02:10:44;;;;;;;2.97;2.13;;;11.60;99.90;;;;;;5029487;28;20374;-81
2022/06/17 02:13:11;;;;;;;3.42;1.90;;;11.50;99.90;;;;;;5028314;28;20386;-82
2022/06/17 02:15:38;;;;;;;3.60;2.17;;;11.50;99.90;;;;;;5014554;28;20411;-82
2022/06/17 02:18:07;;;;;;;4.32;1.95;;;11.40;99.90;;;;;;5009835;28;20486;-82
2022/06/17 02:20:33;;;;;;;2.47;2.03;;;11.30;99.90;;;;;;5011702;28;20439;-82
2022/06/17 02:23:01;;;;;;;3.33;1.98;;;11.30;99.90;;;;;;5029205;28;20854;-82
2022/06/17 02:25:30;;;;;;;2.05;1.85;;;11.30;99.90;;;;;;5027817;28;20883;-82
2022/06/17 02:28:00;;;;;;;2.75;1.90;;;11.30;99.90;;;;;;5011007;28;20396;-82
2022/06/17 02:30:28;;;;;;;3.08;2.08;;;11.20;99.90;;;;;;5011224;28;20390;-83
2022/06/17 02:32:58;;;;;;;3.35;2.15;;;11.20;99.90;;;;;;5028664;28;20485;-82
2022/06/17 02:35:29;;;;;;;3.00;2.30;;;11.20;99.90;;;;;;5029185;28;20377;-82
2022/06/17 02:37:55;;;;;;;2.80;2.10;;;11.10;99.90;;;;;;5010993;28;20405;-82
2022/06/17 02:40:30;;;;;;;2.40;2.08;;;11.10;99.90;;;;;;5028553;28;20385;-82
2022/06/17 02:42:59;;;;;;;2.83;2.40;;;11.00;99.90;;;;;;5027842;28;20735;-83
2022/06/17 02:45:29;;;;;;;2.60;2.17;;;11.00;99.90;;;;;;5011400;28;20887;-82
2022/06/17 02:47:55;;;;;;;4.60;2.20;;;10.90;99.90;;;;;;5011103;28;20824;-83
2022/06/17 02:50:24;;;;;;;3.35;2.00;;;10.80;99.90;;;;;;5011181;28;20382;-82
2022/06/17 02:52:52;;;;;;;3.03;2.20;;;10.90;99.90;;;;;;5010964;28;20390;-82
2022/06/17 02:55:27;;;;;;;5.35;2.40;;;10.90;99.90;;;;;;5011326;28;20377;-82
2022/06/17 02:58:02;;;;;;;2.70;1.90;;;10.90;99.90;;;;;;5028755;28;20405;-84
2022/06/17 03:00:28;;;;;;;3.30;2.20;;;10.80;99.90;;;;;;4992842;28;20384;-82
2022/06/17 03:03:00;;;;;;;3.87;2.50;;;10.80;99.90;;;;;;5025517;28;20398;-82
2022/06/17 03:05:30;;;;;;;5.47;2.27;;;10.80;99.90;;;;;;4991727;28;20397;-82
2022/06/17 03:07:57;;;;;;;4.47;2.20;;;10.80;99.90;;;;;;5028605;28;20871;-82
2022/06/17 03:10:36;;;;;;;4.40;2.13;;;10.80;99.90;;;;;;5028184;28;20389;-82
2022/06/17 03:13:11;;;;;;;4.15;2.30;;;10.80;99.90;;;;;;5011672;28;20452;-82
2022/06/17 03:15:40;;;;;;;6.43;2.83;;;10.80;99.90;;;;;;5028512;28;20385;-82
2022/06/17 03:18:06;;;;;;;5.22;2.67;;;10.80;99.90;;;;;;5010676;28;20448;-82
2022/06/17 03:20:34;;;;;;;8.52;2.70;;;10.80;99.90;;;;;;5028644;28;20373;-82
2022/06/17 03:23:13;;;;;;;5.13;2.20;;;10.80;99.90;;;;;;5028889;28;20409;-83
2022/06/17 03:26:00;;;;;;;7.28;2.45;;;10.90;99.90;;;;;;5008893;28;20378;-82
2022/06/17 03:28:32;;;;;;;20.10;3.60;;;10.90;99.90;;;;;;5011209;28;20371;-82
2022/06/17 03:31:04;;;;;;;17.95;3.75;;;11.00;99.90;;;;;;5027794;28;20409;-82
2022/06/17 03:34:01;;;;;;;27.57;4.20;;;11.00;99.90;;;;;;5022044;28;20377;-82
2022/06/17 03:36:44;;;;;;;10.33;2.70;;;11.10;99.90;;;;;;5010017;28;20407;-83
2022/06/17 03:39:37;;;;;;;5.43;2.33;;;11.10;99.90;;;;;;5022387;28;20389;-82
2022/06/17 03:42:13;;;;;;;5.90;2.30;;;11.20;99.90;;;;;;5031868;28;20370;-82
2022/06/17 03:44:45;;;;;;;10.53;3.10;;;11.30;99.90;;;;;;5031778;28;20468;-82
2022/06/17 03:47:28;;;;;;;10.13;2.92;;;11.30;99.90;;;;;;5013860;28;20425;-82
2022/06/17 03:50:00;;;;;;;5.17;2.20;;;11.40;99.90;;;;;;5030854;28;20476;-82
2022/06/17 03:52:42;;;;;;;7.57;2.72;;;11.60;99.90;;;;;;4994896;28;20454;-82
2022/06/17 03:55:13;;;;;;;13.00;3.00;;;11.70;99.90;;;;;;5003859;28;20835;-83
2022/06/17 03:57:41;;;;;;;9.32;2.95;;;11.70;99.90;;;;;;5013920;28;20949;-82
2022/06/17 04:00:14;;;;;;;23.25;4.47;;;11.80;99.90;;;;;;5031761;28;20439;-82
2022/06/17 04:02:40;;;;;;;22.67;3.93;;;11.90;99.90;;;;;;5013868;28;21188;-82
2022/06/17 04:05:09;;;;;;;22.17;4.53;;;12.00;99.90;;;;;;5014111;28;20382;-83
2022/06/17 04:07:35;;;;;;;15.23;3.90;;;12.10;99.90;;;;;;5031807;28;20382;-82
2022/06/17 04:10:00;;;;;;;13.18;3.47;;;12.10;99.90;;;;;;5013994;28;20442;-82
2022/06/17 04:12:28;;;;;;;10.40;2.90;;;12.20;99.90;;;;;;5032257;28;20394;-82
2022/06/17 04:15:19;;;;;;;5.63;2.70;;;12.30;99.90;;;;;;5014063;28;20919;-82
2022/06/17 04:17:51;;;;;;;9.65;2.95;;;12.40;99.90;;;;;;5013599;28;20429;-82
2022/06/17 04:20:22;;;;;;;6.00;2.85;;;12.60;99.90;;;;;;5031507;28;20408;-83
2022/06/17 04:22:51;;;;;;;36.90;6.47;;;12.60;99.90;;;;;;5028879;28;20374;-84
2022/06/17 04:25:39;;;;;;;71.72;9.43;;;12.60;99.90;;;;;;5011250;28;20369;-83
2022/06/17 04:28:08;;;;;;;19.00;4.43;;;12.60;99.90;;;;;;5027968;28;20457;-82
2022/06/17 04:30:40;;;;;;;17.02;3.78;;;12.70;99.90;;;;;;5009207;28;20388;-82
2022/06/17 04:33:36;;;;;;;32.70;5.55;;;12.90;99.90;;;;;;5010304;28;20767;-82
2022/06/17 04:36:20;;;;;;;33.42;6.28;;;13.10;99.90;;;;;;5009454;28;20394;-83
2022/06/17 04:39:00;;;;;;;11.73;3.65;;;13.30;99.90;;;;;;5030900;28;20893;-82
2022/06/17 04:41:31;;;;;;;14.68;4.47;;;13.60;99.90;;;;;;5009521;28;20478;-82
2022/06/17 04:43:59;;;;;;;10.15;3.53;;;13.80;99.90;;;;;;5014244;28;20391;-81
2022/06/17 04:46:34;;;;;;;13.38;3.53;;;14.20;99.90;;;;;;4993927;28;20466;-83
2022/06/17 04:49:02;;;;;;;5.70;3.15;;;14.50;99.90;;;;;;5016165;28;20405;-82
2022/06/17 04:51:29;;;;;;;6.03;3.45;;;14.80;99.90;;;;;;5031965;28;20398;-83
2022/06/17 04:53:56;;;;;;;7.17;3.80;;;15.10;99.90;;;;;;5026398;28;20439;-81
2022/06/17 04:56:29;;;;;;;5.97;3.63;;;15.20;99.90;;;;;;5013001;28;20862;-81
2022/06/17 04:58:56;;;;;;;4.30;3.60;;;15.60;99.90;;;;;;5013637;28;20466;-81
2022/06/17 05:01:24;;;;;;;6.32;3.15;;;16.00;99.90;;;;;;5013213;28;20420;-82
2022/06/17 05:03:52;;;;;;;5.15;3.10;;;16.50;99.90;;;;;;5012483;28;20405;-82
2022/06/17 05:06:27;;;;;;;4.93;3.17;;;17.00;99.90;;;;;;5013595;28;20385;-82
2022/06/17 05:09:04;;;;;;;4.97;3.25;;;17.50;99.90;;;;;;5020265;28;20377;-82
2022/06/17 05:11:37;;;;;;;9.25;3.17;;;17.50;99.90;;;;;;5009842;28;20782;-82
2022/06/17 05:14:32;;;;;;;7.90;3.40;;;17.80;99.90;;;;;;5009085;28;20396;-82
2022/06/17 05:16:58;;;;;;;4.25;2.90;;;18.10;99.90;;;;;;5030742;28;20913;-83
2022/06/17 05:19:23;;;;;;;4.55;2.75;;;18.60;99.90;;;;;;5028073;28;20398;-83
2022/06/17 05:21:49;;;;;;;6.80;3.37;;;19.00;99.90;;;;;;5025898;28;20465;-83
2022/06/17 05:24:16;;;;;;;5.05;3.30;;;18.90;99.90;;;;;;5008764;28;20421;-84
2022/06/17 05:26:42;;;;;;;6.57;3.53;;;18.80;99.90;;;;;;5009606;28;20479;-82
2022/06/17 05:29:09;;;;;;;5.07;3.33;;;18.70;99.90;;;;;;5024123;28;20639;-83
2022/06/17 05:31:37;;;;;;;4.25;3.30;;;18.60;99.90;;;;;;5013072;28;20790;-83
2022/06/17 05:34:04;;;;;;;4.80;3.25;;;18.70;99.90;;;;;;5013814;28;20868;-82
2022/06/17 05:36:30;;;;;;;5.60;3.00;;;18.80;99.90;;;;;;5012992;28;20416;-84
2022/06/17 05:38:56;;;;;;;8.10;3.35;;;18.90;99.90;;;;;;5030014;28;20854;-82
2022/06/17 05:41:23;;;;;;;6.47;3.57;;;18.90;99.90;;;;;;5030690;28;20380;-82
2022/06/17 05:43:49;;;;;;;6.43;3.20;;;18.90;99.90;;;;;;5030258;28;20393;-83
2022/06/17 05:46:16;;;;;;;4.78;3.38;;;18.90;99.90;;;;;;5030503;28;20465;-82
2022/06/17 05:48:41;;;;;;;7.05;3.55;;;19.00;99.90;;;;;;5029464;28;20955;-84
2022/06/17 05:51:08;;;;;;;6.10;3.23;;;19.10;99.90;;;;;;5012418;28;20498;-82
2022/06/17 05:53:34;;;;;;;8.85;3.20;;;19.10;99.90;;;;;;5030186;28;20393;-82
2022/06/17 05:55:59;;;;;;;6.28;3.45;;;19.20;99.90;;;;;;5029965;28;20382;-83
2022/06/17 05:58:27;;;;;;;5.10;3.10;;;19.30;99.90;;;;;;5030393;28;20404;-83
2022/06/17 06:00:52;;;;;;;6.38;3.67;;;19.50;99.90;;;;;;5013353;28;20524;-84
2022/06/17 06:03:21;;;;;;;4.78;3.28;;;19.40;99.90;;;;;;5013196;28;20433;-82
2022/06/17 06:05:47;;;;;;;6.25;3.60;;;19.40;99.90;;;;;;5013453;28;20412;-83
2022/06/17 06:08:13;;;;;;;5.43;3.50;;;19.60;99.90;;;;;;5029623;28;20370;-84
2022/06/17 06:10:39;;;;;;;6.53;3.67;;;19.80;99.90;;;;;;5012057;28;20878;-83
2022/06/17 06:13:05;;;;;;;7.30;3.63;;;19.70;99.90;;;;;;5029816;28;20381;-83
2022/06/17 06:15:39;;;;;;;5.83;3.10;;;20.00;99.90;;;;;;5028882;28;20480;-83
2022/06/17 06:33:36;;;;;;;5.68;3.40;;;20.40;99.90;;;;;;5107263;27;20350;-84
2022/06/17 06:36:02;;;;;;;6.10;3.50;;;20.60;99.90;;;;;;5106900;28;21181;-84
2022/06/17 06:38:28;;;;;;;6.30;3.33;;;20.80;99.90;;;;;;5108652;27;20776;-85
2022/06/17 06:40:53;;;;;;;6.43;3.30;;;21.30;99.90;;;;;;5107004;28;20403;-83
2022/06/17 06:43:21;;;;;;;5.70;3.20;;;21.60;99.90;;;;;;5109021;28;20428;-85
2022/06/17 06:45:54;;;;;;;3.97;3.10;;;21.70;99.90;;;;;;5108084;27;20379;-85
2022/06/17 06:48:23;;;;;;;5.72;3.10;;;;;;;;;;5106803;27;20388;-84
2022/06/17 06:50:50;;;;;;;7.72;3.25;;;;;;;;;;5102971;28;20368;-84
2022/06/17 06:53:15;;;;;;;5.30;3.22;;;21.90;99.90;;;;;;5103394;28;20987;-85
2022/06/17 06:55:42;;;;;;;6.20;3.13;;;;;;;;;;5106475;28;20446;-84
2022/06/17 06:58:28;;;;;;;5.35;2.95;;;22.60;99.90;;;;;;5107027;28;20391;-85
2022/06/17 07:00:56;;;;;;;4.13;2.60;;;23.00;98.40;;;;;;5105716;28;20372;-84
2022/06/17 07:03:23;;;;;;;5.10;2.80;;;23.40;96.70;;;;;;5105325;28;20523;-85
2022/06/17 07:05:52;;;;;;;5.85;2.70;;;23.50;96.60;;;;;;5107407;28;20458;-84
2022/06/17 07:08:20;;;;;;;5.65;2.70;;;23.80;95.40;;;;;;5106881;28;20440;-86
2022/06/17 07:10:48;;;;;;;5.65;2.80;;;23.80;95.10;;;;;;5103889;28;20380;-84
2022/06/17 07:13:14;;;;;;;4.28;2.50;;;24.10;96.80;;;;;;5112913;28;20386;-85
2022/06/17 07:15:41;;;;;;;4.05;2.50;;;;;;;;;;5127180;28;20374;-82
2022/06/17 07:18:16;;;;;;;5.73;2.80;;;23.80;95.60;;;;;;5123011;28;20370;-84
2022/06/17 07:20:47;;;;;;;5.35;2.72;;;23.80;96.10;;;;;;5125501;28;20454;-86
2022/06/17 07:23:19;;;;;;;5.15;2.50;;;24.20;95.50;;;;;;5126907;28;20394;-85
2022/06/17 07:25:46;;;;;;;4.90;2.33;;;24.30;95.50;;;;;;5126816;28;20374;-86
2022/06/17 07:28:18;;;;;;;5.70;2.53;;;24.50;94.80;;;;;;5114680;28;20428;-86
2022/06/17 07:30:47;;;;;;;3.85;2.72;;;24.60;95.00;;;;;;5105403;28;20893;-86
2022/06/17 07:33:14;;;;;;;4.20;2.40;;;24.70;93.40;;;;;;5106915;28;20423;-85
2022/06/17 07:35:42;;;;;;;5.70;2.75;;;24.80;93.50;;;;;;5089472;27;20422;-86
2022/06/17 07:40:58;;;;;;;4.75;2.53;;;24.70;93.00;;;;;;5106533;28;20383;-85
2022/06/17 07:43:24;;;;;;;5.57;2.70;;;24.40;93.50;;;;;;5100271;28;20773;-85
2022/06/17 07:45:51;;;;;;;7.03;2.10;;;24.20;93.20;;;;;;5091505;28;20483;-85
2022/06/17 07:48:18;;;;;;;16.33;3.63;;;24.20;93.10;;;;;;5090291;28;20808;-85
2022/06/17 07:50:44;;;;;;;4.50;2.15;;;24.10;93.00;;;;;;5091408;28;20885;-85
2022/06/17 07:53:12;;;;;;;6.95;2.13;;;24.10;93.00;;;;;;5092716;28;20384;-84
2022/06/17 07:55:38;;;;;;;4.20;1.80;;;24.20;92.90;;;;;;5091689;28;20873;-86
2022/06/17 07:58:04;;;;;;;3.15;2.20;;;24.30;92.00;;;;;;5093024;28;20484;-84
2022/06/17 08:00:34;;;;;;;3.43;2.10;;;24.00;91.80;;;;;;5093251;28;20364;-85
2022/06/17 08:03:01;;;;;;;5.45;2.03;;;24.00;91.60;;;;;;5092741;28;20454;-86
2022/06/17 08:05:27;;;;;;;3.70;1.95;;;23.90;92.00;;;;;;5102008;28;20371;-86
2022/06/17 08:07:54;;;;;;;6.50;2.10;;;24.00;91.70;;;;;;5094661;28;20391;-86
2022/06/17 08:10:24;;;;;;;5.00;2.00;;;24.00;91.10;;;;;;5103320;28;20375;-86
2022/06/17 08:12:50;;;;;;;6.00;2.53;;;24.10;90.90;;;;;;5105159;28;20386;-86
2022/06/17 08:15:16;;;;;;;5.60;2.00;;;23.90;91.70;;;;;;5091881;28;20466;-85
2022/06/17 08:17:42;;;;;;;6.30;2.20;;;23.90;91.50;;;;;;5091482;28;20373;-84
2022/06/17 08:20:19;;;;;;;4.93;2.30;;;24.10;91.90;;;;;;5090029;28;20399;-85
2022/06/17 08:22:45;;;;;;;4.65;2.00;;;24.40;91.20;;;;;;5091593;28;20404;-84
2022/06/17 08:25:14;;;;;;;3.47;1.70;;;24.70;91.10;;;;;;5090482;28;20453;-87
2022/06/17 08:27:47;;;;;;;4.50;1.80;;;24.80;91.20;;;;;;5090274;28;20427;-85
2022/06/17 08:30:15;;;;;;;3.72;1.98;;;24.90;90.60;;;;;;5091322;28;20383;-86
2022/06/17 08:32:48;;;;;;;2.42;1.83;;;24.90;91.20;;;;;;5088949;28;20405;-86
2022/06/17 08:35:21;;;;;;;5.05;2.00;;;24.90;90.10;;;;;;5090289;28;20745;-85
2022/06/17 08:37:51;;;;;;;4.53;1.90;;;25.20;90.60;;;;;;5088816;28;20885;-85
2022/06/17 08:40:37;;;;;;;7.13;1.80;;;25.20;85.90;;;;;;5090596;28;20513;-84
2022/06/17 08:43:51;;;;;;;2.78;1.73;;;24.90;89.00;;;;;;5091683;28;20797;-86
2022/06/17 08:46:41;;;;;;;3.77;1.80;;;24.90;90.30;;;;;;5091286;28;20437;-86
2022/06/17 08:50:00;;;;;;;3.63;1.77;;;24.90;90.70;;;;;;5088683;28;20924;-86
2022/06/17 08:52:38;;;;;;;3.63;1.70;;;24.90;88.00;;;;;;5057153;28;20415;-85
2022/06/17 08:55:25;;;;;;;3.17;1.65;;;24.50;90.00;;;;;;5089885;28;20377;-87
2022/06/17 08:58:11;;;;;;;3.27;1.93;;;24.60;91.80;;;;;;5090190;28;20392;-85
2022/06/17 09:00:46;;;;;;;2.22;1.63;;;24.70;90.80;;;;;;5093172;28;20902;-84
2022/06/17 09:03:36;;;;;;;4.68;1.67;;;24.80;90.90;;;;;;5111479;27;20793;-86
2022/06/17 09:06:04;;;;;;;8.00;2.90;;;24.90;90.80;;;;;;5089175;28;20400;-85
2022/06/17 09:08:36;;;;;;;6.30;1.92;;;25.20;91.70;;;;;;5089392;28;20389;-85
2022/06/17 09:11:24;;;;;;;4.60;1.80;;;25.30;88.20;;;;;;5090890;28;20908;-86
2022/06/17 09:14:21;;;;;;;3.13;1.40;;;25.40;85.70;;;;;;5088799;27;20408;-85
2022/06/17 09:17:08;;;;;;;4.60;1.58;;;25.50;85.70;;;;;;5094751;28;20894;-85
2022/06/17 09:19:38;;;;;;;3.67;1.73;;;25.50;87.50;;;;;;5097795;28;20381;-86
2022/06/17 09:22:13;;;;;;;17.58;2.83;;;25.70;87.70;;;;;;5089180;28;20572;-86
2022/06/17 09:24:41;;;;;;;4.10;1.50;;;25.60;85.60;;;;;;5089117;28;20399;-85
2022/06/17 09:27:30;;;;;;;4.63;1.60;;;25.50;85.90;;;;;;5088601;28;20423;-85
2022/06/17 09:29:56;;;;;;;4.20;1.60;;;;;;;;;;5089137;28;20488;-85
2022/06/17 09:33:14;;;;;;;3.47;1.52;;;25.50;85.80;;;;;;5099770;28;20403;-86
2022/06/17 09:35:50;;;;;;;6.05;1.70;;;25.60;85.30;;;;;;5083092;28;20762;-85
2022/06/17 09:38:17;;;;;;;3.97;1.50;;;25.70;83.60;;;;;;5109566;28;20431;-86
2022/06/17 09:40:53;;;;;;;3.53;1.60;;;25.70;85.40;;;;;;5100402;28;20392;-85
2022/06/17 09:43:39;;;;;;;3.97;1.55;;;25.90;85.50;;;;;;5087915;28;21001;-86
2022/06/17 09:46:31;;;;;;;5.20;1.60;;;26.00;82.60;;;;;;5107200;28;20385;-85
2022/06/17 09:49:25;;;;;;;3.08;1.30;;;26.30;81.90;;;;;;5068809;28;20737;-87
2022/06/17 09:52:19;;;;;;;3.95;1.27;;;26.40;81.00;;;;;;5046173;28;20393;-85
2022/06/17 09:54:50;;;;;;;1.95;1.13;;;26.20;80.10;;;;;;5069749;28;20386;-87
2022/06/17 09:57:23;;;;;;;3.63;1.50;;;26.10;81.60;;;;;;5086709;28;20435;-88
2022/06/17 10:00:01;;;;;;;2.40;1.40;;;26.00;81.30;;;;;;5109520;28;20898;-87
2022/06/17 10:02:35;;;;;;;2.60;1.38;;;26.00;81.40;;;;;;5108924;28;20763;-87
2022/06/17 10:05:30;;;;;;;4.30;1.33;;;26.10;80.30;;;;;;5111052;28;20371;-86
2022/06/17 10:08:11;;;;;;;2.50;1.50;;;26.10;81.70;;;;;;5109864;28;20428;-84
2022/06/17 10:10:59;;;;;;;1.90;1.13;;;26.00;77.70;;;;;;5099719;28;20380;-85
2022/06/17 10:13:39;;;;;;;11.07;2.30;;;25.90;81.90;;;;;;5088953;28;20384;-85
2022/06/17 10:19:38;;;;;;;3.43;1.40;;;26.30;78.60;;;;;;5090469;28;20395;-84
2022/06/17 10:22:25;;;;;;;6.20;1.37;;;26.20;80.90;;;;;;5089250;28;20514;-84
2022/06/17 10:24:59;;;;;;;3.50;1.50;;;26.30;82.90;;;;;;5089502;28;20380;-84
2022/06/17 10:27:43;;;;;;;3.67;1.80;;;26.50;79.70;;;;;;5089694;28;20388;-85
2022/06/17 10:30:13;;;;;;;2.65;1.25;;;26.70;79.80;;;;;;5087978;28;20383;-85
2022/06/17 10:32:46;;;;;;;1.65;1.13;;;26.90;77.40;;;;;;5088903;28;20403;-83
2022/06/17 10:35:29;;;;;;;2.42;1.20;;;26.60;74.80;;;;;;5087640;28;20419;-86
2022/06/17 10:37:57;;;;;;;1.38;0.90;;;25.80;75.60;;;;;;5079125;28;20364;-85
2022/06/17 10:40:27;;;;;;;3.47;1.30;;;25.60;76.00;;;;;;5089135;28;20380;-86
2022/06/17 10:42:57;;;;;;;2.27;0.93;;;25.70;79.30;;;;;;5088969;28;20412;-85
2022/06/17 10:45:23;;;;;;;2.58;1.08;;;25.90;78.40;;;;;;5098223;28;20427;-86
2022/06/17 10:48:01;;;;;;;1.50;0.98;;;26.20;78.30;;;;;;5098032;28;20384;-87
2022/06/17 10:50:30;;;;;;;1.97;1.00;;;26.50;76.20;;;;;;5087242;28;20462;-86
2022/06/17 10:53:42;;;;;;;1.67;1.10;;;26.60;74.20;;;;;;5093402;28;20406;-84
2022/06/17 10:56:31;;;;;;;2.38;1.20;;;26.60;73.80;;;;;;5089567;28;20379;-85
2022/06/17 10:59:08;;;;;;;1.60;1.15;;;26.40;75.80;;;;;;5055941;28;20385;-85
2022/06/17 11:01:49;;;;;;;1.52;1.00;;;26.40;72.50;;;;;;5097178;28;20402;-87
2022/06/17 11:04:32;;;;;;;2.22;1.00;;;26.40;74.70;;;;;;5097675;28;20502;-86
2022/06/17 11:07:17;;;;;;;1.67;1.20;;;26.30;72.90;;;;;;5067552;28;20381;-84
2022/06/17 11:09:52;;;;;;;2.17;1.20;;;26.20;73.40;;;;;;5068178;28;20386;-84
2022/06/17 11:12:24;;;;;;;3.25;1.60;;;26.20;76.20;;;;;;5067912;28;20378;-84
2022/06/17 11:15:05;;;;;;;2.25;1.20;;;26.30;74.00;;;;;;5067579;28;20748;-84
2022/06/17 11:17:46;;;;;;;4.03;1.45;;;25.90;74.10;;;;;;5068865;28;20378;-86
2022/06/17 11:20:15;;;;;;;3.43;1.20;;;25.70;74.80;;;;;;5071162;28;20440;-86
2022/06/17 11:22:49;;;;;;;2.05;1.13;;;25.60;74.50;;;;;;5071079;28;20525;-85
2022/06/17 11:25:38;;;;;;;2.97;1.40;;;25.50;74.50;;;;;;5071673;28;20432;-87
2022/06/17 11:28:25;;;;;;;3.47;1.33;;;25.60;79.00;;;;;;5072784;28;20859;-86
2022/06/17 11:31:01;;;;;;;2.70;1.27;;;25.90;78.50;;;;;;5072445;28;20373;-85
2022/06/17 11:33:41;;;;;;;1.77;1.08;;;26.10;76.90;;;;;;5071381;28;20428;-86
2022/06/17 11:36:18;;;;;;;1.83;1.15;;;26.20;75.70;;;;;;5072646;28;20420;-85
2022/06/17 11:38:44;;;;;;;1.35;1.20;;;26.10;72.70;;;;;;5070787;28;20378;-86
2022/06/17 11:41:20;;;;;;;2.92;1.42;;;26.10;73.10;;;;;;5071039;28;20388;-87
2022/06/17 11:43:47;;;;;;;4.15;1.55;;;26.20;74.00;;;;;;5072547;28;20412;-83
2022/06/17 11:46:21;;;;;;;2.15;1.42;;;26.10;74.90;;;;;;5073327;28;20851;-81
2022/06/17 11:48:57;;;;;;;2.00;1.30;;;26.20;74.80;;;;;;5071870;28;20386;-86
2022/06/17 11:51:35;;;;;;;4.13;1.58;;;26.40;75.70;;;;;;5070808;28;20390;-88
2022/06/17 11:54:23;;;;;;;1.45;1.10;;;26.60;75.70;;;;;;5078494;28;20400;-85
2022/06/17 11:56:53;;;;;;;4.30;1.30;;;26.70;72.50;;;;;;5091353;28;20384;-85
2022/06/17 11:59:23;;;;;;;1.90;1.27;;;26.70;73.00;;;;;;5092908;28;20416;-86
2022/06/17 12:02:04;;;;;;;2.47;1.25;;;26.70;72.20;;;;;;5089107;28;20486;-86
2022/06/17 12:04:49;;;;;;;3.22;1.45;;;26.70;72.50;;;;;;5089803;28;20372;-85
2022/06/17 12:07:44;;;;;;;2.08;1.20;;;26.90;72.50;;;;;;5093055;28;20379;-85
2022/06/17 12:10:25;;;;;;;58.10;6.78;;;27.10;72.30;;;;;;5087947;28;20399;-87
2022/06/17 12:12:56;;;;;;;2.80;1.10;;;27.10;71.00;;;;;;5095645;28;20852;-86
2022/06/17 12:15:36;;;;;;;1.10;1.00;;;27.30;70.10;;;;;;5099134;28;20377;-86
2022/06/17 12:18:02;;;;;;;1.30;0.87;;;27.20;68.60;;;;;;5089169;28;20392;-86
2022/06/17 12:21:08;;;;;;;5.67;1.30;;;27.10;67.20;;;;;;5100578;28;21029;-86
2022/06/17 12:24:02;;;;;;;1.38;1.02;;;27.00;68.10;;;;;;5077816;28;20413;-86
2022/06/17 12:26:39;;;;;;;2.25;1.20;;;26.90;67.90;;;;;;5095732;28;20380;-84
2022/06/17 12:29:14;;;;;;;2.65;1.15;;;27.20;71.80;;;;;;5092083;28;20415;-85
2022/06/17 12:31:59;;;;;;;1.48;1.20;;;27.30;68.80;;;;;;5091716;28;20960;-87
2022/06/17 12:34:43;;;;;;;2.33;1.30;;;27.10;70.00;;;;;;5100941;28;20378;-88
2022/06/17 12:37:27;;;;;;;1.85;1.10;;;27.00;69.10;;;;;;5096852;28;20765;-85
2022/06/17 12:40:13;;;;;;;2.00;1.20;;;27.00;68.70;;;;;;5106129;28;20394;-86
2022/06/17 12:42:51;;;;;;;3.30;1.20;;;27.00;69.90;;;;;;5101480;28;20400;-87
2022/06/17 12:45:28;;;;;;;2.28;1.30;;;27.30;69.90;;;;;;5099532;28;20388;-86
2022/06/17 12:48:24;;;;;;;2.13;1.40;;;27.60;69.00;;;;;;5100309;28;20995;-86
2022/06/17 12:54:02;;;;;;;1.85;1.48;;;27.90;68.20;;;;;;5099559;28;20380;-86
2022/06/17 12:56:53;;;;;;;2.30;1.30;;;27.70;67.30;;;;;;5093452;28;20459;-85
2022/06/17 13:00:06;;;;;;;1.83;1.30;;;27.50;67.90;;;;;;5099600;28;20708;-87
2022/06/17 13:02:56;;;;;;;1.92;1.20;;;27.70;70.80;;;;;;5058549;28;20419;-87
2022/06/17 13:05:34;;;;;;;2.58;1.20;;;28.20;67.90;;;;;;5057560;28;20401;-86
2022/06/17 13:08:24;;;;;;;3.00;1.30;;;28.30;67.30;;;;;;5082047;28;20389;-86
2022/06/17 13:11:10;;;;;;;1.40;1.20;;;28.50;69.00;;;;;;5089564;28;20750;-85
2022/06/17 13:13:45;;;;;;;2.05;1.00;;;28.70;66.90;;;;;;5093188;28;20793;-85
2022/06/17 13:16:29;;;;;;;1.10;0.90;;;28.60;65.40;;;;;;5089409;28;20388;-86
2022/06/17 13:19:33;;;;;;;5.20;1.25;;;28.10;66.10;;;;;;5089498;28;20467;-87
2022/06/17 13:22:32;;;;;;;2.28;1.10;;;28.00;66.90;;;;;;5090180;28;20403;-87
2022/06/17 13:25:08;;;;;;;1.63;1.00;;;27.70;67.40;;;;;;5086887;28;20380;-85
2022/06/17 13:27:45;;;;;;;2.80;1.20;;;27.90;68.40;;;;;;5090640;28;20384;-83
2022/06/17 13:30:23;;;;;;;1.30;1.15;;;28.10;65.20;;;;;;5069104;28;20452;-85
2022/06/17 13:32:58;;;;;;;2.92;1.25;;;28.00;64.70;;;;;;5071072;28;20465;-85
2022/06/17 13:35:39;;;;;;;1.70;1.05;;;27.90;67.10;;;;;;5068742;28;20394;-85
2022/06/17 13:38:07;;;;;;;2.33;1.10;;;27.80;65.50;;;;;;5069375;28;20386;-86
2022/06/17 13:40:49;;;;;;;1.83;1.30;;;27.70;66.80;;;;;;5088005;28;20459;-87
2022/06/17 13:43:27;;;;;;;2.60;1.30;;;27.60;66.00;;;;;;5108470;28;20445;-86
2022/06/17 13:45:53;;;;;;;1.60;1.00;;;27.60;67.20;;;;;;5110596;28;20397;-84
2022/06/17 13:48:21;;;;;;;1.70;1.10;;;27.90;66.00;;;;;;5112701;28;20940;-86
2022/06/17 13:51:00;;;;;;;1.48;1.17;;;28.10;67.50;;;;;;5095904;27;20396;-83